sensor_id;sensor_type;location;lat;lon;timestamp;temperature;humidity
67890;DHT22;54685;52.082;5.426;2022-11-20T00:01:19;-1.80;99.90
67890;DHT22;54685;52.082;5.426;2022-11-20T00:03:47;-1.80;99.90
67890;DHT22;54685;52.082;5.426;2022-11-20T00:06:16;-1.80;99.90
67890;DHT22;54685;52.082;5.426;2022-11-20T00:08:43;-1.90;99.90
67890;DHT22;54685;52.082;5.426;2022-11-20T00:11:15;-1.90;99.90
67890;DHT22;54685;52.082;5.426;2022-11-20T00:13:46;-1.90;99.90
67890;DHT22;54685;52.082;5.426;2022-11-20T00:16:15;-1.90;99.90
67890;DHT22;54685;52.082;5.426;2022-11-20T00:18:42;-2.00;99.90
67890;DHT22;54685;52.082;5.426;2022-11-20T00:21:17;-2.10;99.90
67890;DHT22;54685;52.082;5.426;2022-11-20T00:23:44;-2.10;99.90
67890;DHT22;54685;52.082;5.426;2022-11-20T00:26:16;-2.10;99.90
67890;DHT22;54685;52.082;5.426;2022-11-20T00:28:44;-2.10;99.90
67890;DHT22;54685;52.082;5.426;2022-11-20T00:31:16;-2.10;99.90
67890;DHT22;54685;52.082;5.426;2022-11-20T00:33:43;-2.10;99.90
67890;DHT22;54685;52.082;5.426;2022-11-20T00:36:15;-2.10;99.90
67890;DHT22;54685;52.082;5.426;2022-11-20T00:38:43;-2.10;99.90
67890;DHT22;54685;52.082;5.426;2022-11-20T00:41:13;-2.10;99.90
67890;DHT22;54685;52.082;5.426;2022-11-20T00:43:40;-2.20;99.90
67890;DHT22;54685;52.082;5.426;2022-11-20T00:46:13;-2.20;99.90
67890;DHT22;54685;52.082;5.426;2022-11-20T00:48:40;-2.20;99.90
67890;DHT22;54685;52.082;5.426;2022-11-20T00:51:12;-2.20;99.90
67890;DHT22;54685;52.082;5.426;2022-11-20T00:53:39;-2.30;99.90
67890;DHT22;54685;52.082;5.426;2022-11-20T00:56:09;-2.30;99.90
67890;DHT22;54685;52.082;5.426;2022-11-20T00:58:38;-2.40;99.90
67890;DHT22;54685;52.082;5.426;2022-11-20T01:01:10;-2.50;99.90
67890;DHT22;54685;52.082;5.426;2022-11-20T01:03:39;-2.60;99.90
67890;DHT22;54685;52.082;5.426;2022-11-20T01:06:10;-2.60;99.90
67890;DHT22;54685;52.082;5.426;2022-11-20T01:08:37;-2.60;99.90
67890;DHT22;54685;52.082;5.426;2022-11-20T01:11:09;-2.60;99.90
67890;DHT22;54685;52.082;5.426;2022-11-20T01:13:37;-2.70;99.90
67890;DHT22;54685;52.082;5.426;2022-11-20T01:16:22;-2.70;99.90
67890;DHT22;54685;52.082;5.426;2022-11-20T01:18:53;-2.70;99.90
67890;DHT22;54685;52.082;5.426;2022-11-20T01:21:23;-2.70;99.90
67890;DHT22;54685;52.082;5.426;2022-11-20T01:23:51;-2.70;99.90
67890;DHT22;54685;52.082;5.426;2022-11-20T01:26:24;-2.60;99.90
67890;DHT22;54685;52.082;5.426;2022-11-20T01:28:52;-2.50;99.90
67890;DHT22;54685;52.082;5.426;2022-11-20T01:33:51;-2.50;99.90
67890;DHT22;54685;52.082;5.426;2022-11-20T01:36:19;-2.40;99.90
67890;DHT22;54685;52.082;5.426;2022-11-20T01:38:47;-2.40;99.90
67890;DHT22;54685;52.082;5.426;2022-11-20T01:41:14;-2.40;99.90
67890;DHT22;54685;52.082;5.426;2022-11-20T01:44:02;-2.40;99.90
67890;DHT22;54685;52.082;5.426;2022-11-20T01:46:34;-2.50;99.90
67890;DHT22;54685;52.082;5.426;2022-11-20T01:49:07;-2.50;99.90
67890;DHT22;54685;52.082;5.426;2022-11-20T01:51:47;-2.50;99.90
67890;DHT22;54685;52.082;5.426;2022-11-20T01:54:23;-2.40;99.90
67890;DHT22;54685;52.082;5.426;2022-11-20T01:56:54;-2.40;99.90
67890;DHT22;54685;52.082;5.426;2022-11-20T01:59:23;-2.30;99.90
67890;DHT22;54685;52.082;5.426;2022-11-20T02:01:50;-2.30;99.90
67890;DHT22;54685;52.082;5.426;2022-11-20T02:04:18;-2.40;99.90
67890;DHT22;54685;52.082;5.426;2022-11-20T02:06:49;-2.40;99.90
67890;DHT22;54685;52.082;5.426;2022-11-20T02:09:16;-2.30;99.90
67890;DHT22;54685;52.082;5.426;2022-11-20T02:11:43;-2.30;99.90
67890;DHT22;54685;52.082;5.426;2022-11-20T02:14:10;-2.30;99.90
67890;DHT22;54685;52.082;5.426;2022-11-20T02:16:43;-2.20;99.90
67890;DHT22;54685;52.082;5.426;2022-11-20T02:19:30;-2.30;99.90
67890;DHT22;54685;52.082;5.426;2022-11-20T02:22:05;-2.40;99.90
67890;DHT22;54685;52.082;5.426;2022-11-20T02:24:34;-2.40;99.90
67890;DHT22;54685;52.082;5.426;2022-11-20T02:27:10;-2.40;99.90
67890;DHT22;54685;52.082;5.426;2022-11-20T02:29:56;-2.40;99.90
67890;DHT22;54685;52.082;5.426;2022-11-20T02:32:29;-2.30;99.90
67890;DHT22;54685;52.082;5.426;2022-11-20T02:34:56;-2.40;99.90
67890;DHT22;54685;52.082;5.426;2022-11-20T02:37:30;-2.50;99.90
67890;DHT22;54685;52.082;5.426;2022-11-20T02:39:58;-2.60;99.90
67890;DHT22;54685;52.082;5.426;2022-11-20T02:42:25;-2.60;99.90
67890;DHT22;54685;52.082;5.426;2022-11-20T02:44:52;-2.60;99.90
67890;DHT22;54685;52.082;5.426;2022-11-20T02:47:19;-2.60;99.90
67890;DHT22;54685;52.082;5.426;2022-11-20T02:49:45;-2.70;99.90
67890;DHT22;54685;52.082;5.426;2022-11-20T02:52:12;-2.70;99.90
67890;DHT22;54685;52.082;5.426;2022-11-20T02:54:39;-2.80;99.90
67890;DHT22;54685;52.082;5.426;2022-11-20T02:57:05;-2.80;99.90
67890;DHT22;54685;52.082;5.426;2022-11-20T02:59:32;-2.80;99.90
67890;DHT22;54685;52.082;5.426;2022-11-20T03:01:59;-2.80;99.90
67890;DHT22;54685;52.082;5.426;2022-11-20T03:04:25;-2.80;99.90
67890;DHT22;54685;52.082;5.426;2022-11-20T03:06:52;-2.80;99.90
67890;DHT22;54685;52.082;5.426;2022-11-20T03:09:19;-2.80;99.90
67890;DHT22;54685;52.082;5.426;2022-11-20T03:11:46;-2.80;99.90
67890;DHT22;54685;52.082;5.426;2022-11-20T03:14:12;-2.70;99.90
67890;DHT22;54685;52.082;5.426;2022-11-20T03:16:39;-2.60;99.90
67890;DHT22;54685;52.082;5.426;2022-11-20T03:19:06;-2.50;99.90
67890;DHT22;54685;52.082;5.426;2022-11-20T03:21:34;-2.50;99.90
67890;DHT22;54685;52.082;5.426;2022-11-20T03:24:01;-2.40;99.90
67890;DHT22;54685;52.082;5.426;2022-11-20T03:26:28;-2.40;99.90
67890;DHT22;54685;52.082;5.426;2022-11-20T03:29:00;-2.50;99.90
67890;DHT22;54685;52.082;5.426;2022-11-20T03:31:33;-2.50;99.90
67890;DHT22;54685;52.082;5.426;2022-11-20T03:34:02;-2.70;99.90
67890;DHT22;54685;52.082;5.426;2022-11-20T03:36:29;-2.80;99.90
67890;DHT22;54685;52.082;5.426;2022-11-20T03:38:56;-2.90;99.90
67890;DHT22;54685;52.082;5.426;2022-11-20T03:41:27;-2.90;99.90
67890;DHT22;54685;52.082;5.426;2022-11-20T03:43:59;-3.00;99.90
67890;DHT22;54685;52.082;5.426;2022-11-20T03:46:27;-3.00;99.90
67890;DHT22;54685;52.082;5.426;2022-11-20T03:48:55;-3.00;99.90
67890;DHT22;54685;52.082;5.426;2022-11-20T03:51:33;-3.10;99.90
67890;DHT22;54685;52.082;5.426;2022-11-20T03:54:07;-3.00;99.90
67890;DHT22;54685;52.082;5.426;2022-11-20T03:56:38;-2.90;99.90
67890;DHT22;54685;52.082;5.426;2022-11-20T03:59:06;-2.90;99.90
67890;DHT22;54685;52.082;5.426;2022-11-20T04:01:35;-2.90;99.90
67890;DHT22;54685;52.082;5.426;2022-11-20T04:04:04;-2.80;99.90
67890;DHT22;54685;52.082;5.426;2022-11-20T04:06:36;-2.90;99.90
67890;DHT22;54685;52.082;5.426;2022-11-20T04:09:05;-3.00;99.90
67890;DHT22;54685;52.082;5.426;2022-11-20T04:11:34;-3.00;99.90
67890;DHT22;54685;52.082;5.426;2022-11-20T04:14:03;-3.10;99.90
67890;DHT22;54685;52.082;5.426;2022-11-20T04:16:34;-3.00;99.90
67890;DHT22;54685;52.082;5.426;2022-11-20T04:19:05;-3.00;99.90
67890;DHT22;54685;52.082;5.426;2022-11-20T04:21:32;-3.00;99.90
67890;DHT22;54685;52.082;5.426;2022-11-20T04:24:00;-3.10;99.90
67890;DHT22;54685;52.082;5.426;2022-11-20T04:26:28;-3.10;99.90
67890;DHT22;54685;52.082;5.426;2022-11-20T04:28:55;-3.20;99.90
67890;DHT22;54685;52.082;5.426;2022-11-20T04:31:25;-3.30;99.90
67890;DHT22;54685;52.082;5.426;2022-11-20T04:33:52;-3.30;99.90
67890;DHT22;54685;52.082;5.426;2022-11-20T04:36:26;-3.20;99.90
67890;DHT22;54685;52.082;5.426;2022-11-20T04:38:55;-3.30;99.90
67890;DHT22;54685;52.082;5.426;2022-11-20T04:41:25;-3.30;99.90
67890;DHT22;54685;52.082;5.426;2022-11-20T04:43:54;-3.30;99.90
67890;DHT22;54685;52.082;5.426;2022-11-20T04:46:26;-3.40;99.90
67890;DHT22;54685;52.082;5.426;2022-11-20T04:48:54;-3.40;99.90
67890;DHT22;54685;52.082;5.426;2022-11-20T04:51:20;-3.50;99.90
67890;DHT22;54685;52.082;5.426;2022-11-20T04:53:47;-3.50;99.90
67890;DHT22;54685;52.082;5.426;2022-11-20T04:56:14;-3.60;99.90
67890;DHT22;54685;52.082;5.426;2022-11-20T04:58:41;-3.50;99.90
67890;DHT22;54685;52.082;5.426;2022-11-20T05:01:13;-3.60;99.90
67890;DHT22;54685;52.082;5.426;2022-11-20T05:03:40;-3.60;99.90
67890;DHT22;54685;52.082;5.426;2022-11-20T05:06:10;-3.60;99.90
67890;DHT22;54685;52.082;5.426;2022-11-20T05:08:37;-3.60;99.90
67890;DHT22;54685;52.082;5.426;2022-11-20T05:11:15;-3.60;99.90
67890;DHT22;54685;52.082;5.426;2022-11-20T05:13:42;-3.60;99.90
67890;DHT22;54685;52.082;5.426;2022-11-20T05:16:12;-3.60;99.90
67890;DHT22;54685;52.082;5.426;2022-11-20T05:18:40;-3.60;99.90
67890;DHT22;54685;52.082;5.426;2022-11-20T05:21:08;-3.60;99.90
67890;DHT22;54685;52.082;5.426;2022-11-20T05:23:35;-3.60;99.90
67890;DHT22;54685;52.082;5.426;2022-11-20T05:26:03;-3.70;99.90
67890;DHT22;54685;52.082;5.426;2022-11-20T05:28:31;-3.80;99.90
67890;DHT22;54685;52.082;5.426;2022-11-20T05:33:33;-3.80;99.90
67890;DHT22;54685;52.082;5.426;2022-11-20T05:36:00;-3.80;99.90
67890;DHT22;54685;52.082;5.426;2022-11-20T05:38:26;-3.90;99.90
67890;DHT22;54685;52.082;5.426;2022-11-20T05:40:53;-3.90;99.90
67890;DHT22;54685;52.082;5.426;2022-11-20T05:43:20;-3.90;99.90
67890;DHT22;54685;52.082;5.426;2022-11-20T05:45:53;-3.90;99.90
67890;DHT22;54685;52.082;5.426;2022-11-20T05:48:20;-3.80;99.90
67890;DHT22;54685;52.082;5.426;2022-11-20T05:50:48;-3.80;99.90
67890;DHT22;54685;52.082;5.426;2022-11-20T05:53:14;-3.80;99.90
67890;DHT22;54685;52.082;5.426;2022-11-20T05:55:41;-3.80;99.90
67890;DHT22;54685;52.082;5.426;2022-11-20T05:58:08;-3.80;99.90
67890;DHT22;54685;52.082;5.426;2022-11-20T06:00:35;-3.80;99.90
67890;DHT22;54685;52.082;5.426;2022-11-20T06:03:02;-3.70;99.90
67890;DHT22;54685;52.082;5.426;2022-11-20T06:05:29;-3.60;99.90
67890;DHT22;54685;52.082;5.426;2022-11-20T06:07:55;-3.50;99.90
67890;DHT22;54685;52.082;5.426;2022-11-20T06:10:22;-3.40;99.90
67890;DHT22;54685;52.082;5.426;2022-11-20T06:12:48;-3.40;99.90
67890;DHT22;54685;52.082;5.426;2022-11-20T06:15:15;-3.50;99.90
67890;DHT22;54685;52.082;5.426;2022-11-20T06:17:42;-3.50;99.90
67890;DHT22;54685;52.082;5.426;2022-11-20T06:20:09;-3.40;99.90
67890;DHT22;54685;52.082;5.426;2022-11-20T06:22:36;-3.40;99.90
67890;DHT22;54685;52.082;5.426;2022-11-20T06:25:02;-3.40;99.90
67890;DHT22;54685;52.082;5.426;2022-11-20T06:27:29;-3.40;99.90
67890;DHT22;54685;52.082;5.426;2022-11-20T06:29:56;-3.40;99.90
67890;DHT22;54685;52.082;5.426;2022-11-20T06:32:23;-3.40;99.90
67890;DHT22;54685;52.082;5.426;2022-11-20T06:34:49;-3.40;99.90
67890;DHT22;54685;52.082;5.426;2022-11-20T06:37:16;-3.40;99.90
67890;DHT22;54685;52.082;5.426;2022-11-20T06:39:43;-3.30;99.90
67890;DHT22;54685;52.082;5.426;2022-11-20T06:42:10;-3.40;99.90
67890;DHT22;54685;52.082;5.426;2022-11-20T06:44:37;-3.50;99.90
67890;DHT22;54685;52.082;5.426;2022-11-20T06:47:03;-3.70;99.90
67890;DHT22;54685;52.082;5.426;2022-11-20T06:49:30;-3.70;99.90
67890;DHT22;54685;52.082;5.426;2022-11-20T06:51:57;-3.70;99.90
67890;DHT22;54685;52.082;5.426;2022-11-20T06:54:24;-3.80;99.90
67890;DHT22;54685;52.082;5.426;2022-11-20T06:56:50;-3.80;99.90
67890;DHT22;54685;52.082;5.426;2022-11-20T06:59:17;-3.80;99.90
67890;DHT22;54685;52.082;5.426;2022-11-20T07:01:44;-3.80;99.90
67890;DHT22;54685;52.082;5.426;2022-11-20T07:04:11;-3.70;99.90
67890;DHT22;54685;52.082;5.426;2022-11-20T07:06:37;-3.70;99.90
67890;DHT22;54685;52.082;5.426;2022-11-20T07:09:04;-3.80;99.90
67890;DHT22;54685;52.082;5.426;2022-11-20T07:11:38;-3.80;99.90
67890;DHT22;54685;52.082;5.426;2022-11-20T07:14:04;-3.80;99.90
67890;DHT22;54685;52.082;5.426;2022-11-20T07:16:31;-3.80;99.90
67890;DHT22;54685;52.082;5.426;2022-11-20T07:18:58;-3.80;99.90
67890;DHT22;54685;52.082;5.426;2022-11-20T07:21:25;-3.80;99.90
67890;DHT22;54685;52.082;5.426;2022-11-20T07:23:52;-3.80;99.90
67890;DHT22;54685;52.082;5.426;2022-11-20T07:26:18;-3.80;99.90
67890;DHT22;54685;52.082;5.426;2022-11-20T07:28:46;-3.80;99.90
67890;DHT22;54685;52.082;5.426;2022-11-20T07:31:12;-3.70;99.90
67890;DHT22;54685;52.082;5.426;2022-11-20T07:33:44;-3.70;99.90
67890;DHT22;54685;52.082;5.426;2022-11-20T07:36:11;-3.70;99.90
67890;DHT22;54685;52.082;5.426;2022-11-20T07:38:38;-3.70;99.90
67890;DHT22;54685;52.082;5.426;2022-11-20T07:41:04;-3.60;99.90
67890;DHT22;54685;52.082;5.426;2022-11-20T07:43:31;-3.60;99.90
67890;DHT22;54685;52.082;5.426;2022-11-20T07:46:05;-3.60;99.90
67890;DHT22;54685;52.082;5.426;2022-11-20T07:48:32;-3.50;99.90
67890;DHT22;54685;52.082;5.426;2022-11-20T07:50:59;-3.40;99.90
67890;DHT22;54685;52.082;5.426;2022-11-20T07:53:28;-3.50;99.90
67890;DHT22;54685;52.082;5.426;2022-11-20T07:55:54;-3.50;99.90
67890;DHT22;54685;52.082;5.426;2022-11-20T07:58:21;-3.40;99.90
67890;DHT22;54685;52.082;5.426;2022-11-20T08:00:48;-3.30;99.90
67890;DHT22;54685;52.082;5.426;2022-11-20T08:03:15;-3.20;99.90
67890;DHT22;54685;52.082;5.426;2022-11-20T08:05:50;-3.20;99.90
67890;DHT22;54685;52.082;5.426;2022-11-20T08:08:16;-3.20;99.90
67890;DHT22;54685;52.082;5.426;2022-11-20T08:10:43;-3.10;99.90
67890;DHT22;54685;52.082;5.426;2022-11-20T08:13:10;-3.10;99.90
67890;DHT22;54685;52.082;5.426;2022-11-20T08:15:55;-3.00;99.90
67890;DHT22;54685;52.082;5.426;2022-11-20T08:18:22;-2.90;99.90
67890;DHT22;54685;52.082;5.426;2022-11-20T08:21:01;-2.90;99.90
67890;DHT22;54685;52.082;5.426;2022-11-20T08:23:28;-2.70;99.90
67890;DHT22;54685;52.082;5.426;2022-11-20T08:25:54;-2.70;99.90
67890;DHT22;54685;52.082;5.426;2022-11-20T08:28:21;-2.60;99.90
67890;DHT22;54685;52.082;5.426;2022-11-20T08:30:49;-2.60;99.90
67890;DHT22;54685;52.082;5.426;2022-11-20T08:33:17;-2.50;99.90
67890;DHT22;54685;52.082;5.426;2022-11-20T08:35:44;-2.50;99.90
67890;DHT22;54685;52.082;5.426;2022-11-20T08:38:11;-2.50;99.90
67890;DHT22;54685;52.082;5.426;2022-11-20T08:40:37;-2.40;99.90
67890;DHT22;54685;52.082;5.426;2022-11-20T08:43:04;-2.50;99.90
67890;DHT22;54685;52.082;5.426;2022-11-20T08:45:31;-2.30;99.90
67890;DHT22;54685;52.082;5.426;2022-11-20T08:48:02;-2.30;99.90
67890;DHT22;54685;52.082;5.426;2022-11-20T08:50:30;-2.30;99.90
67890;DHT22;54685;52.082;5.426;2022-11-20T08:53:03;-2.10;99.90
67890;DHT22;54685;52.082;5.426;2022-11-20T08:55:31;-2.10;99.90
67890;DHT22;54685;52.082;5.426;2022-11-20T08:57:57;-2.00;99.90
67890;DHT22;54685;52.082;5.426;2022-11-20T09:00:24;-1.90;99.90
67890;DHT22;54685;52.082;5.426;2022-11-20T09:02:51;-1.80;99.90
67890;DHT22;54685;52.082;5.426;2022-11-20T09:05:18;-1.80;99.90
67890;DHT22;54685;52.082;5.426;2022-11-20T09:07:45;-1.70;99.90
67890;DHT22;54685;52.082;5.426;2022-11-20T09:10:12;-1.60;99.90
67890;DHT22;54685;52.082;5.426;2022-11-20T09:12:54;-1.50;99.90
67890;DHT22;54685;52.082;5.426;2022-11-20T09:15:23;-1.50;99.90
67890;DHT22;54685;52.082;5.426;2022-11-20T09:17:56;-1.40;99.90
67890;DHT22;54685;52.082;5.426;2022-11-20T09:20:24;-1.30;99.90
67890;DHT22;54685;52.082;5.426;2022-11-20T09:22:51;-1.20;99.90
67890;DHT22;54685;52.082;5.426;2022-11-20T09:25:18;-1.20;99.90
67890;DHT22;54685;52.082;5.426;2022-11-20T09:27:44;-1.10;99.90
67890;DHT22;54685;52.082;5.426;2022-11-20T09:30:14;-1.10;99.90
67890;DHT22;54685;52.082;5.426;2022-11-20T09:32:42;-1.10;99.90
67890;DHT22;54685;52.082;5.426;2022-11-20T09:35:09;-1.00;99.90
67890;DHT22;54685;52.082;5.426;2022-11-20T09:37:37;-0.90;99.90
67890;DHT22;54685;52.082;5.426;2022-11-20T09:40:04;-0.90;99.90
67890;DHT22;54685;52.082;5.426;2022-11-20T09:42:47;-0.90;99.90
67890;DHT22;54685;52.082;5.426;2022-11-20T09:56:08;-0.50;99.90
67890;DHT22;54685;52.082;5.426;2022-11-20T09:58:46;-0.40;99.90
67890;DHT22;54685;52.082;5.426;2022-11-20T10:01:16;-0.30;99.90
67890;DHT22;54685;52.082;5.426;2022-11-20T10:04:00;-0.20;99.90
67890;DHT22;54685;52.082;5.426;2022-11-20T10:06:33;-0.20;99.90
67890;DHT22;54685;52.082;5.426;2022-11-20T10:09:15;-0.10;99.90
67890;DHT22;54685;52.082;5.426;2022-11-20T10:14:38;0.00;99.90
67890;DHT22;54685;52.082;5.426;2022-11-20T10:20:15;0.30;99.90
67890;DHT22;54685;52.082;5.426;2022-11-20T10:25:50;0.50;99.90
67890;DHT22;54685;52.082;5.426;2022-11-20T10:31:09;0.80;99.90
67890;DHT22;54685;52.082;5.426;2022-11-20T10:33:42;0.90;99.90
67890;DHT22;54685;52.082;5.426;2022-11-20T10:36:43;0.90;99.90
67890;DHT22;54685;52.082;5.426;2022-11-20T10:39:26;1.00;99.90
67890;DHT22;54685;52.082;5.426;2022-11-20T10:41:55;1.10;99.90
67890;DHT22;54685;52.082;5.426;2022-11-20T10:44:30;1.10;99.90
67890;DHT22;54685;52.082;5.426;2022-11-20T10:47:21;1.20;99.90
67890;DHT22;54685;52.082;5.426;2022-11-20T10:49:52;1.20;99.90
67890;DHT22;54685;52.082;5.426;2022-11-20T10:52:42;1.30;99.90
67890;DHT22;54685;52.082;5.426;2022-11-20T10:55:40;1.30;99.90
67890;DHT22;54685;52.082;5.426;2022-11-20T10:58:23;1.30;99.90
67890;DHT22;54685;52.082;5.426;2022-11-20T11:00:52;1.40;99.90
67890;DHT22;54685;52.082;5.426;2022-11-20T11:03:31;1.40;99.90
67890;DHT22;54685;52.082;5.426;2022-11-20T11:06:31;1.40;99.90
67890;DHT22;54685;52.082;5.426;2022-11-20T11:08:56;1.50;99.90
67890;DHT22;54685;52.082;5.426;2022-11-20T11:11:30;1.60;99.90
67890;DHT22;54685;52.082;5.426;2022-11-20T11:14:08;1.60;99.90
67890;DHT22;54685;52.082;5.426;2022-11-20T11:16:35;1.70;99.90
67890;DHT22;54685;52.082;5.426;2022-11-20T11:19:14;1.80;99.90
67890;DHT22;54685;52.082;5.426;2022-11-20T11:22:16;1.80;99.90
67890;DHT22;54685;52.082;5.426;2022-11-20T11:24:52;1.80;99.90
67890;DHT22;54685;52.082;5.426;2022-11-20T11:27:19;1.90;99.90
67890;DHT22;54685;52.082;5.426;2022-11-20T11:29:46;1.90;99.90
67890;DHT22;54685;52.082;5.426;2022-11-20T11:32:20;1.90;99.90
67890;DHT22;54685;52.082;5.426;2022-11-20T11:35:02;1.90;99.90
67890;DHT22;54685;52.082;5.426;2022-11-20T11:37:34;2.00;99.90
67890;DHT22;54685;52.082;5.426;2022-11-20T11:40:04;2.00;99.90
67890;DHT22;54685;52.082;5.426;2022-11-20T11:42:59;2.00;99.90
67890;DHT22;54685;52.082;5.426;2022-11-20T11:45:26;2.00;99.90
67890;DHT22;54685;52.082;5.426;2022-11-20T11:47:56;2.00;99.90
67890;DHT22;54685;52.082;5.426;2022-11-20T11:50:28;2.00;99.90
67890;DHT22;54685;52.082;5.426;2022-11-20T11:53:14;2.00;99.90
67890;DHT22;54685;52.082;5.426;2022-11-20T11:55:53;2.10;99.90
67890;DHT22;54685;52.082;5.426;2022-11-20T12:01:38;2.10;99.90
67890;DHT22;54685;52.082;5.426;2022-11-20T12:04:24;2.10;99.90
67890;DHT22;54685;52.082;5.426;2022-11-20T12:07:01;2.10;99.90
67890;DHT22;54685;52.082;5.426;2022-11-20T12:09:53;2.20;99.90
67890;DHT22;54685;52.082;5.426;2022-11-20T12:12:27;2.20;99.90
67890;DHT22;54685;52.082;5.426;2022-11-20T12:14:56;2.20;99.90
67890;DHT22;54685;52.082;5.426;2022-11-20T12:17:24;2.20;99.90
67890;DHT22;54685;52.082;5.426;2022-11-20T12:19:51;2.20;99.90
67890;DHT22;54685;52.082;5.426;2022-11-20T12:22:32;2.20;99.90
67890;DHT22;54685;52.082;5.426;2022-11-20T12:25:02;2.20;99.90
67890;DHT22;54685;52.082;5.426;2022-11-20T12:33:36;2.30;99.90
67890;DHT22;54685;52.082;5.426;2022-11-20T12:36:29;2.20;99.90
67890;DHT22;54685;52.082;5.426;2022-11-20T12:53:50;2.30;99.90
67890;DHT22;54685;52.082;5.426;2022-11-20T12:56:34;2.30;99.90
67890;DHT22;54685;52.082;5.426;2022-11-20T13:02:01;2.30;99.90
67890;DHT22;54685;52.082;5.426;2022-11-20T13:07:30;2.30;99.90
67890;DHT22;54685;52.082;5.426;2022-11-20T13:09:59;2.30;99.90
67890;DHT22;54685;52.082;5.426;2022-11-20T13:15:17;2.40;99.90
67890;DHT22;54685;52.082;5.426;2022-11-20T13:20:18;2.40;99.90
67890;DHT22;54685;52.082;5.426;2022-11-20T13:22:53;2.50;99.90
67890;DHT22;54685;52.082;5.426;2022-11-20T13:25:24;2.50;99.90
67890;DHT22;54685;52.082;5.426;2022-11-20T13:27:53;2.50;99.90
67890;DHT22;54685;52.082;5.426;2022-11-20T13:30:23;2.50;99.90
67890;DHT22;54685;52.082;5.426;2022-11-20T13:35:34;2.50;99.90
67890;DHT22;54685;52.082;5.426;2022-11-20T13:38:09;2.50;99.90
67890;DHT22;54685;52.082;5.426;2022-11-20T13:40:39;2.50;99.90
67890;DHT22;54685;52.082;5.426;2022-11-20T13:43:27;2.50;99.90
67890;DHT22;54685;52.082;5.426;2022-11-20T13:46:00;2.50;99.90
67890;DHT22;54685;52.082;5.426;2022-11-20T13:48:34;2.50;99.90
67890;DHT22;54685;52.082;5.426;2022-11-20T13:58:59;2.50;99.90
67890;DHT22;54685;52.082;5.426;2022-11-20T14:01:31;2.50;99.90
67890;DHT22;54685;52.082;5.426;2022-11-20T14:03:59;2.50;99.90
67890;DHT22;54685;52.082;5.426;2022-11-20T14:06:40;2.50;99.90
67890;DHT22;54685;52.082;5.426;2022-11-20T14:09:12;2.60;99.90
67890;DHT22;54685;52.082;5.426;2022-11-20T14:11:46;2.50;99.90
67890;DHT22;54685;52.082;5.426;2022-11-20T14:14:16;2.60;99.90
67890;DHT22;54685;52.082;5.426;2022-11-20T14:16:43;2.60;99.90
67890;DHT22;54685;52.082;5.426;2022-11-20T14:19:29;2.60;99.90
67890;DHT22;54685;52.082;5.426;2022-11-20T14:22:21;2.60;99.90
67890;DHT22;54685;52.082;5.426;2022-11-20T14:25:06;2.60;99.90
67890;DHT22;54685;52.082;5.426;2022-11-20T14:27:36;2.60;99.90
67890;DHT22;54685;52.082;5.426;2022-11-20T14:30:04;2.70;99.90
67890;DHT22;54685;52.082;5.426;2022-11-20T14:32:32;2.60;99.90
67890;DHT22;54685;52.082;5.426;2022-11-20T14:35:09;2.60;99.90
67890;DHT22;54685;52.082;5.426;2022-11-20T14:37:38;2.60;99.90
67890;DHT22;54685;52.082;5.426;2022-11-20T14:40:30;2.60;99.90
67890;DHT22;54685;52.082;5.426;2022-11-20T14:42:58;2.60;99.90
67890;DHT22;54685;52.082;5.426;2022-11-20T14:45:26;2.60;99.90
67890;DHT22;54685;52.082;5.426;2022-11-20T14:47:55;2.60;99.90
67890;DHT22;54685;52.082;5.426;2022-11-20T14:50:28;2.60;99.90
67890;DHT22;54685;52.082;5.426;2022-11-20T14:53:00;2.70;99.90
67890;DHT22;54685;52.082;5.426;2022-11-20T14:58:21;2.70;99.90
67890;DHT22;54685;52.082;5.426;2022-11-20T15:01:14;2.70;99.90
67890;DHT22;54685;52.082;5.426;2022-11-20T15:04:00;2.70;99.90
67890;DHT22;54685;52.082;5.426;2022-11-20T15:06:27;2.60;99.90
67890;DHT22;54685;52.082;5.426;2022-11-20T15:08:54;2.60;99.90
67890;DHT22;54685;52.082;5.426;2022-11-20T15:11:27;2.60;99.90
67890;DHT22;54685;52.082;5.426;2022-11-20T15:13:55;2.60;99.90
67890;DHT22;54685;52.082;5.426;2022-11-20T15:16:23;2.70;99.90
67890;DHT22;54685;52.082;5.426;2022-11-20T15:18:50;2.70;99.90
67890;DHT22;54685;52.082;5.426;2022-11-20T15:21:19;2.70;99.90
67890;DHT22;54685;52.082;5.426;2022-11-20T15:23:47;2.70;99.90
67890;DHT22;54685;52.082;5.426;2022-11-20T15:26:25;2.70;99.90
67890;DHT22;54685;52.082;5.426;2022-11-20T15:28:52;2.70;99.90
67890;DHT22;54685;52.082;5.426;2022-11-20T15:31:22;2.70;99.90
67890;DHT22;54685;52.082;5.426;2022-11-20T15:33:49;2.70;99.90
67890;DHT22;54685;52.082;5.426;2022-11-20T15:36:16;2.70;99.90
67890;DHT22;54685;52.082;5.426;2022-11-20T15:38:43;2.70;99.90
67890;DHT22;54685;52.082;5.426;2022-11-20T15:41:10;2.80;99.90
67890;DHT22;54685;52.082;5.426;2022-11-20T15:43:38;2.80;99.90
67890;DHT22;54685;52.082;5.426;2022-11-20T15:46:09;2.70;99.90
67890;DHT22;54685;52.082;5.426;2022-11-20T15:48:42;2.70;99.90
67890;DHT22;54685;52.082;5.426;2022-11-20T15:51:34;2.80;99.90
67890;DHT22;54685;52.082;5.426;2022-11-20T15:54:19;2.80;99.90
67890;DHT22;54685;52.082;5.426;2022-11-20T15:56:50;2.80;99.90
67890;DHT22;54685;52.082;5.426;2022-11-20T15:59:20;2.90;99.90
67890;DHT22;54685;52.082;5.426;2022-11-20T16:01:47;2.90;99.90
67890;DHT22;54685;52.082;5.426;2022-11-20T16:04:15;2.90;99.90
67890;DHT22;54685;52.082;5.426;2022-11-20T16:06:42;2.90;99.90
67890;DHT22;54685;52.082;5.426;2022-11-20T16:09:10;3.00;99.90
67890;DHT22;54685;52.082;5.426;2022-11-20T16:11:36;3.00;99.90
67890;DHT22;54685;52.082;5.426;2022-11-20T16:14:04;3.00;99.90
67890;DHT22;54685;52.082;5.426;2022-11-20T16:16:50;3.00;99.90
67890;DHT22;54685;52.082;5.426;2022-11-20T16:19:17;3.00;99.90
67890;DHT22;54685;52.082;5.426;2022-11-20T16:21:45;3.00;99.90
67890;DHT22;54685;52.082;5.426;2022-11-20T16:24:13;3.00;99.90
67890;DHT22;54685;52.082;5.426;2022-11-20T16:26:40;3.00;99.90
67890;DHT22;54685;52.082;5.426;2022-11-20T16:29:08;3.10;99.90
67890;DHT22;54685;52.082;5.426;2022-11-20T16:31:35;3.00;99.90
67890;DHT22;54685;52.082;5.426;2022-11-20T16:34:04;3.10;99.90
67890;DHT22;54685;52.082;5.426;2022-11-20T16:36:41;3.10;99.90
67890;DHT22;54685;52.082;5.426;2022-11-20T16:39:09;3.10;99.90
67890;DHT22;54685;52.082;5.426;2022-11-20T16:41:36;3.10;99.90
67890;DHT22;54685;52.082;5.426;2022-11-20T16:44:07;3.10;99.90
67890;DHT22;54685;52.082;5.426;2022-11-20T16:46:35;3.10;99.90
67890;DHT22;54685;52.082;5.426;2022-11-20T16:49:08;3.10;99.90
67890;DHT22;54685;52.082;5.426;2022-11-20T16:51:37;3.10;99.90
67890;DHT22;54685;52.082;5.426;2022-11-20T16:54:06;3.10;99.90
67890;DHT22;54685;52.082;5.426;2022-11-20T16:56:33;3.10;99.90
67890;DHT22;54685;52.082;5.426;2022-11-20T16:59:00;3.10;99.90
67890;DHT22;54685;52.082;5.426;2022-11-20T17:01:28;3.10;99.90
67890;DHT22;54685;52.082;5.426;2022-11-20T17:03:58;3.10;99.90
67890;DHT22;54685;52.082;5.426;2022-11-20T17:06:27;3.20;99.90
67890;DHT22;54685;52.082;5.426;2022-11-20T17:08:54;3.20;99.90
67890;DHT22;54685;52.082;5.426;2022-11-20T17:11:22;3.20;99.90
67890;DHT22;54685;52.082;5.426;2022-11-20T17:13:49;3.20;99.90
67890;DHT22;54685;52.082;5.426;2022-11-20T17:16:18;3.20;99.90